Time;durP1;ratioP1;P1;durP2;ratioP2;P2;SDS_P1;SDS_P2;PMS_P1;PMS_P2;Temp;Humidity;BMP_temperature;BMP_pressure;BME280_temperature;BME280_humidity;BME280_pressure;Samples;Min_cycle;Max_cycle;Signal;HPM_P1;HPM_P2
2024/01/28 00:01:43;;;;;;;28.48;11.55;;;;;;;;;;5045523;28;20060;-80
2024/01/28 00:04:09;;;;;;;28.83;10.57;;;;;;;;;;5027008;28;20043;-79
2024/01/28 00:06:35;;;;;;;28.38;10.93;;;;;;;;;;5042183;28;20088;-79
2024/01/28 00:09:02;;;;;;;27.23;10.65;;;;;;;;;;5008763;28;20511;-80
2024/01/28 00:11:28;;;;;;;34.75;11.77;;;;;;;;;;5058823;28;20064;-79
2024/01/28 00:13:54;;;;;;;28.67;9.80;;;;;;;;;;5057480;28;20049;-79
2024/01/28 00:16:20;;;;;;;33.47;11.68;;;;;;;;;;5040859;28;20052;-79
2024/01/28 00:18:46;;;;;;;30.83;9.85;;;;;;;;;;5039598;28;20037;-79
2024/01/28 00:21:12;;;;;;;29.50;12.63;;;;;;;;;;5059292;28;20045;-79
2024/01/28 00:23:38;;;;;;;28.45;11.63;;;;;;;;;;5040549;28;20045;-79
2024/01/28 00:26:05;;;;;;;27.95;11.35;;;;;;;;;;5057806;28;20048;-79
2024/01/28 00:28:31;;;;;;;28.05;11.52;;;;;;;;;;5040315;28;20103;-79
2024/01/28 00:30:57;;;;;;;28.52;10.15;;;;;;;;;;5057633;28;20049;-80
2024/01/28 00:33:23;;;;;;;22.98;9.60;;;;;;;;;;5041447;28;20499;-80
2024/01/28 00:35:49;;;;;;;33.05;11.70;;;;;;;;;;5025141;28;20184;-80
2024/01/28 00:38:15;;;;;;;29.33;10.93;;;;;;;;;;5040490;28;20057;-79
2024/01/28 00:40:41;;;;;;;31.47;11.23;;;;;;;;;;5060118;28;20096;-79
2024/01/28 00:43:07;;;;;;;29.05;10.77;;;;;;;;;;5058362;28;20083;-79
2024/01/28 00:45:34;;;;;;;31.67;10.98;;;;;;;;;;5059001;28;20045;-79
2024/01/28 00:48:00;;;;;;;31.35;9.90;;;;;;;;;;5024617;28;20106;-80
2024/01/28 00:50:26;;;;;;;26.50;10.15;;;;;;;;;;5041761;28;20041;-79
2024/01/28 00:52:52;;;;;;;28.73;9.82;;;;;;;;;;5066705;28;20064;-78
2024/01/28 00:55:18;;;;;;;28.88;10.25;;;;;;;;;;5049644;28;20049;-78
2024/01/28 00:57:44;;;;;;;24.23;9.68;;;;;;;;;;5072309;28;20049;-80
2024/01/28 01:00:10;;;;;;;28.23;9.65;;;;;;;;;;5051242;28;20044;-79
2024/01/28 01:02:37;;;;;;;27.30;9.95;;;;;;;;;;5049500;28;20045;-79
2024/01/28 01:05:03;;;;;;;28.88;9.93;;;;;;;;;;5049027;28;20056;-79
2024/01/28 01:07:29;;;;;;;28.88;9.65;;;;;;;;;;5063791;28;20072;-80
2024/01/28 01:09:55;;;;;;;23.00;9.30;;;;;;;;;;5063320;28;20053;-80
2024/01/28 01:12:22;;;;;;;31.45;10.10;;;;;;;;;;5048675;28;20460;-81
2024/01/28 01:14:48;;;;;;;29.60;9.40;;;;;;;;;;5051232;28;20052;-79
2024/01/28 01:17:14;;;;;;;27.20;9.85;;;;;;;;;;5068949;28;20037;-80
2024/01/28 01:19:40;;;;;;;22.40;9.32;;;;;;;;;;5068018;28;20053;-79
2024/01/28 01:22:07;;;;;;;23.02;9.20;;;;;;;;;;5049676;28;20049;-81
2024/01/28 01:24:33;;;;;;;29.90;10.38;;;;;;;;;;5051076;28;20044;-75
2024/01/28 01:26:59;;;;;;;29.25;10.15;;;;;;;;;;5050885;28;20463;-81
2024/01/28 01:29:25;;;;;;;25.08;10.25;;;;;;;;;;5067896;28;20067;-80
2024/01/28 01:31:51;;;;;;;26.65;10.43;;;;;;;;;;5047859;28;20056;-80
2024/01/28 01:34:17;;;;;;;30.55;10.60;;;;;;;;;;5066489;28;20106;-80
2024/01/28 01:36:44;;;;;;;26.65;10.07;;;;;;;;;;5046073;28;20052;-80
2024/01/28 01:39:10;;;;;;;35.07;11.37;;;;;;;;;;5060741;28;20040;-80
2024/01/28 01:41:36;;;;;;;27.70;10.02;;;;;;;;;;5060502;28;20323;-79
2024/01/28 01:44:02;;;;;;;31.98;10.68;;;;;;;;;;5046012;28;20122;-79
2024/01/28 01:46:30;;;;;;;25.88;10.15;;;;;;;;;;5062490;28;20128;-79
2024/01/28 01:48:57;;;;;;;23.15;9.48;;;;;;;;;;5063574;28;20094;-79
2024/01/28 01:51:23;;;;;;;26.17;9.95;;;;;;;;;;5025626;28;20127;-78
2024/01/28 01:53:50;;;;;;;23.45;10.30;;;;;;;;;;5058261;28;20045;-79
2024/01/28 01:56:16;;;;;;;24.50;9.85;;;;;;;;;;5039939;28;20048;-79
2024/01/28 01:58:43;;;;;;;22.65;9.30;;;;;;;;;;5059020;28;20064;-78
2024/01/28 02:01:09;;;;;;;25.50;9.68;;;;;;;;;;5059283;28;20045;-79
2024/01/28 02:03:35;;;;;;;25.60;9.95;;;;;;;;;;5041041;28;20071;-79
2024/01/28 02:06:01;;;;;;;26.87;9.27;;;;;;;;;;5040623;28;20049;-79
2024/01/28 02:08:28;;;;;;;30.95;9.02;;;;;;;;;;5059226;28;20132;-77
2024/01/28 02:10:54;;;;;;;24.20;9.85;;;;;;;;;;5042065;28;20370;-79
2024/01/28 02:13:21;;;;;;;26.92;9.18;;;;;;;;;;5027389;28;20052;-78
2024/01/28 02:15:47;;;;;;;23.15;8.70;;;;;;;;;;5058224;28;20092;-78
2024/01/28 02:18:13;;;;;;;21.10;8.77;;;;;;;;;;5041558;28;20051;-79
2024/01/28 02:20:39;;;;;;;21.23;8.40;;;;;;;;;;5043514;28;20044;-79
2024/01/28 02:23:08;;;;;;;23.25;9.25;;;;;;;;;;5059134;28;20373;-78
2024/01/28 02:25:34;;;;;;;27.08;9.23;;;;;;;;;;5042705;28;20037;-79
2024/01/28 02:28:00;;;;;;;20.98;9.15;;;;;;;;;;5022853;28;20477;-80
2024/01/28 02:30:26;;;;;;;28.33;9.68;;;;;;;;;;5058600;28;20125;-77
2024/01/28 02:32:53;;;;;;;26.20;10.07;;;;;;;;;;5039293;28;20049;-79
2024/01/28 02:35:19;;;;;;;23.00;9.13;;;;;;;;;;5059744;28;20049;-79
2024/01/28 02:37:45;;;;;;;30.55;9.07;;;;;;;;;;5040470;28;20045;-78
2024/01/28 02:40:12;;;;;;;28.40;10.03;;;;;;;;;;5058979;28;20120;-79
2024/01/28 02:42:38;;;;;;;20.15;8.93;;;;;;;;;;5057941;28;20057;-78
2024/01/28 02:45:05;;;;;;;30.42;9.60;;;;;;;;;;5057805;28;20495;-78
2024/01/28 02:47:31;;;;;;;23.85;9.13;;;;;;;;;;5040351;28;20049;-78
2024/01/28 02:49:57;;;;;;;22.33;7.85;;;;;;;;;;5058004;28;20041;-79
2024/01/28 02:52:23;;;;;;;25.30;8.85;;;;;;;;;;5039781;28;20044;-80
2024/01/28 02:54:49;;;;;;;23.23;8.40;;;;;;;;;;5038260;28;20041;-78
2024/01/28 02:57:15;;;;;;;30.83;8.10;;;;;;;;;;5040857;28;20105;-80
2024/01/28 02:59:41;;;;;;;18.77;7.68;;;;;;;;;;5059122;28;20067;-80
2024/01/28 03:02:07;;;;;;;28.05;9.43;;;;;;;;;;5058963;28;20076;-79
2024/01/28 03:04:37;;;;;;;24.48;9.00;;;;;;;;;;5022529;28;20048;-77
2024/01/28 03:07:03;;;;;;;21.75;8.32;;;;;;;;;;5038965;28;20055;-78
2024/01/28 03:09:30;;;;;;;20.05;8.70;;;;;;;;;;5022341;28;20114;-79
2024/01/28 03:11:56;;;;;;;26.33;9.20;;;;;;;;;;5038004;28;20103;-78
2024/01/28 03:14:22;;;;;;;29.25;8.68;;;;;;;;;;5056554;28;20053;-80
2024/01/28 03:16:48;;;;;;;19.98;8.98;;;;;;;;;;5056954;28;20060;-77
2024/01/28 03:19:15;;;;;;;17.70;7.93;;;;;;;;;;5057338;28;20114;-78
2024/01/28 03:21:41;;;;;;;20.98;8.95;;;;;;;;;;5059075;28;20045;-80
2024/01/28 03:24:07;;;;;;;25.83;8.27;;;;;;;;;;5058709;28;20131;-79
2024/01/28 03:26:34;;;;;;;32.10;8.70;;;;;;;;;;5060236;28;20041;-79
2024/01/28 03:29:01;;;;;;;23.67;8.33;;;;;;;;;;5058691;28;20049;-79
2024/01/28 03:31:27;;;;;;;;;;;;;;;;;;5024832;28;20307;-77
2024/01/28 03:33:54;;;;;;;17.63;6.95;;;;;;;;;;5041288;28;19920;-78
2024/01/28 03:36:20;;;;;;;22.33;7.93;;;;;;;;;;5060662;28;20049;-77
2024/01/28 03:38:46;;;;;;;26.52;8.40;;;;;;;;;;5062490;28;20045;-75
2024/01/28 03:41:16;;;;;;;22.13;7.95;;;;;;;;;;5042621;28;20131;-76
2024/01/28 03:43:42;;;;;;;18.95;7.25;;;;;;;;;;5056435;28;20393;-78
2024/01/28 03:46:09;;;;;;;22.10;7.93;;;;;;;;;;5055628;28;20045;-78
2024/01/28 03:48:35;;;;;;;16.92;7.43;;;;;;;;;;5057358;28;20136;-79
2024/01/28 03:51:02;;;;;;;26.83;9.70;;;;;;;;;;5038658;28;20576;-79
2024/01/28 03:53:28;;;;;;;21.50;8.43;;;;;;;;;;5040874;28;20037;-79
2024/01/28 03:55:54;;;;;;;27.33;8.20;;;;;;;;;;5022110;28;20492;-78
2024/01/28 03:58:21;;;;;;;21.90;7.73;;;;;;;;;;5039477;28;20615;-79
2024/01/28 04:00:47;;;;;;;23.93;6.97;;;;;;;;;;5041444;28;20763;-77
2024/01/28 04:03:13;;;;;;;33.38;8.80;;;;;;;;;;5059316;28;20104;-79
2024/01/28 04:05:39;;;;;;;20.33;7.80;;;;;;;;;;5021381;28;20064;-78
2024/01/28 04:08:09;;;;;;;18.23;7.50;;;;;;;;;;5054226;28;20049;-78
2024/01/28 04:10:36;;;;;;;25.17;7.90;;;;;;;;;;5037255;28;20357;-79
2024/01/28 04:13:02;;;;;;;25.30;7.90;;;;;;;;;;5037381;28;20400;-79
2024/01/28 04:15:28;;;;;;;20.15;8.35;;;;;;;;;;5056290;28;20283;-79
2024/01/28 04:17:54;;;;;;;20.88;7.70;;;;;;;;;;5057019;28;20538;-79
2024/01/28 04:20:20;;;;;;;19.73;8.02;;;;;;;;;;5058621;28;20090;-80
2024/01/28 04:22:46;;;;;;;25.90;9.00;;;;;;;;;;5025382;28;20057;-81
2024/01/28 04:25:13;;;;;;;17.48;7.32;;;;;;;;;;5042459;28;20048;-80
2024/01/28 04:27:39;;;;;;;24.73;7.72;;;;;;;;;;5024173;28;20147;-79
2024/01/28 04:30:08;;;;;;;24.87;8.07;;;;;;;;;;5057717;28;20052;-80
2024/01/28 04:32:34;;;;;;;20.88;7.13;;;;;;;;;;5061779;28;20064;-80
2024/01/28 04:35:00;;;;;;;19.60;7.30;;;;;;;;;;5042708;28;20061;-79
2024/01/28 04:37:27;;;;;;;17.95;7.80;;;;;;;;;;5062149;28;20408;-80
2024/01/28 04:39:56;;;;;;;19.30;7.40;;;;;;;;;;5065747;28;20056;-79
2024/01/28 04:42:23;;;;;;;19.00;7.30;;;;;;;;;;5047700;28;20153;-78
2024/01/28 04:44:50;;;;;;;25.73;7.57;;;;;;;;;;5032915;28;20045;-79
2024/01/28 04:47:16;;;;;;;19.60;7.37;;;;;;;;;;5048611;28;20041;-79
2024/01/28 04:49:42;;;;;;;17.98;7.28;;;;;;;;;;5047808;28;20377;-79
2024/01/28 04:52:09;;;;;;;21.83;7.45;;;;;;;;;;5045699;28;20460;-80
2024/01/28 04:54:35;;;;;;;18.60;7.45;;;;;;;;;;5041256;28;20111;-80
2024/01/28 04:57:01;;;;;;;20.90;7.22;;;;;;;;;;5008996;28;20049;-77
2024/01/28 04:59:28;;;;;;;21.65;7.47;;;;;;;;;;5042615;28;20041;-80
2024/01/28 05:01:57;;;;;;;20.63;7.00;;;;;;;;;;5023877;28;20099;-79
2024/01/28 05:04:23;;;;;;;21.80;6.57;;;;;;;;;;5023154;28;20299;-79
2024/01/28 05:06:50;;;;;;;19.63;7.40;;;;;;;;;;5023231;28;20045;-79
2024/01/28 05:09:17;;;;;;;20.20;7.63;;;;;;;;;;5040354;28;20057;-79
2024/01/28 05:11:44;;;;;;;34.55;7.47;;;;;;;;;;5023734;28;20076;-79
2024/01/28 05:14:11;;;;;;;22.60;6.82;;;;;;;;;;5022710;28;20057;-80
2024/01/28 05:16:38;;;;;;;19.80;6.47;;;;;;;;;;5021865;28;20069;-79
2024/01/28 05:19:06;;;;;;;23.05;6.43;;;;;;;;;;5036210;28;20049;-75
2024/01/28 05:21:32;;;;;;;19.55;6.50;;;;;;;;;;5038211;28;20474;-79
2024/01/28 05:24:00;;;;;;;16.85;6.03;;;;;;;;;;5020204;28;20378;-78
2024/01/28 05:26:26;;;;;;;18.05;6.68;;;;;;;;;;5021810;28;20057;-79
2024/01/28 05:28:52;;;;;;;15.98;6.57;;;;;;;;;;5022174;28;20046;-78
2024/01/28 05:31:18;;;;;;;16.30;6.45;;;;;;;;;;5020712;28;20059;-78
2024/01/28 05:33:46;;;;;;;13.32;5.38;;;;;;;;;;5020449;28;20049;-78
2024/01/28 05:36:13;;;;;;;15.50;6.13;;;;;;;;;;5018805;28;20100;-79
2024/01/28 05:38:40;;;;;;;21.08;6.10;;;;;;;;;;5019918;28;20081;-79
2024/01/28 05:41:07;;;;;;;16.40;6.30;;;;;;;;;;4990552;28;1119586;-76
2024/01/28 05:43:33;;;;;;;18.08;6.07;;;;;;;;;;5039789;28;20056;-80
2024/01/28 05:46:00;;;;;;;23.08;6.68;;;;;;;;;;5041773;28;20381;-78
2024/01/28 05:48:26;;;;;;;24.88;6.32;;;;;;;;;;5060020;28;20052;-78
2024/01/28 05:50:52;;;;;;;23.55;7.22;;;;;;;;;;5060437;28;20426;-79
2024/01/28 05:53:19;;;;;;;22.95;6.95;;;;;;;;;;5042234;28;20128;-79
2024/01/28 05:55:45;;;;;;;16.58;6.28;;;;;;;;;;5040885;28;20093;-79
2024/01/28 05:58:11;;;;;;;17.83;6.10;;;;;;;;;;5060863;28;20056;-77
2024/01/28 06:00:37;;;;;;;22.58;6.20;;;;;;;;;;5062909;28;20095;-77
2024/01/28 06:03:04;;;;;;;13.15;5.18;;;;;;;;;;5062366;28;20045;-78
2024/01/28 06:05:30;;;;;;;16.35;5.30;;;;;;;;;;5024733;28;20049;-77
2024/01/28 06:07:56;;;;;;;17.75;5.80;;;;;;;;;;5039167;28;20083;-79
2024/01/28 06:10:22;;;;;;;15.90;6.07;;;;;;;;;;5056846;28;20401;-80
2024/01/28 06:12:48;;;;;;;17.55;6.10;;;;;;;;;;5040697;28;20112;-79
2024/01/28 06:15:14;;;;;;;16.98;5.90;;;;;;;;;;5060207;28;20048;-79
2024/01/28 06:17:41;;;;;;;17.50;5.38;;;;;;;;;;5061632;28;20052;-79
2024/01/28 06:20:08;;;;;;;17.33;6.18;;;;;;;;;;5044963;28;20132;-80
2024/01/28 06:22:34;;;;;;;17.20;5.80;;;;;;;;;;5059840;28;20389;-78
2024/01/28 06:25:01;;;;;;;16.92;6.25;;;;;;;;;;5058271;28;20053;-80
2024/01/28 06:27:27;;;;;;;15.73;5.53;;;;;;;;;;5057919;28;20041;-79
2024/01/28 06:29:53;;;;;;;17.67;5.88;;;;;;;;;;5060466;28;20049;-79
2024/01/28 06:32:21;;;;;;;17.88;6.53;;;;;;;;;;5026716;28;20405;-79
2024/01/28 06:34:47;;;;;;;19.20;6.35;;;;;;;;;;5063123;28;20397;-80
2024/01/28 06:37:13;;;;;;;15.00;5.75;;;;;;;;;;5044569;28;20048;-79
2024/01/28 06:39:39;;;;;;;18.80;6.47;;;;;;;;;;5043314;28;20393;-80
2024/01/28 06:42:05;;;;;;;16.60;6.28;;;;;;;;;;5042854;28;20045;-80
2024/01/28 06:44:36;;;;;;;20.98;6.25;;;;;;;;;;5027842;28;20052;-80
2024/01/28 06:47:03;;;;;;;20.17;6.40;;;;;;;;;;5060538;28;20124;-80
2024/01/28 06:49:29;;;;;;;17.85;6.68;;;;;;;;;;5042414;28;20500;-79
2024/01/28 06:51:55;;;;;;;20.00;7.45;;;;;;;;;;5029685;28;20052;-79
2024/01/28 06:54:21;;;;;;;17.55;6.60;;;;;;;;;;5059980;28;20063;-81
2024/01/28 06:56:51;;;;;;;21.65;6.97;;;;;;;;;;5041043;28;20044;-80
2024/01/28 06:59:20;;;;;;;14.95;7.15;;;;;;;;;;5059084;28;20052;-75
2024/01/28 07:01:46;;;;;;;17.38;7.03;;;;;;;;;;5057647;28;20049;-79
2024/01/28 07:04:12;;;;;;;18.67;6.68;;;;;;;;;;5057549;28;20041;-76
2024/01/28 07:06:39;;;;;;;14.60;6.90;;;;;;;;;;5039457;28;20110;-79
2024/01/28 07:09:07;;;;;;;18.02;7.53;;;;;;;;;;5039203;28;20500;-79
2024/01/28 07:11:34;;;;;;;26.25;9.70;;;;;;;;;;5057013;28;20053;-79
2024/01/28 07:14:00;;;;;;;34.75;11.85;;;;;;;;;;5057975;28;20041;-80
2024/01/28 07:16:26;;;;;;;33.95;12.27;;;;;;;;;;5056740;28;20099;-79
2024/01/28 07:18:52;;;;;;;28.80;11.32;;;;;;;;;;5039768;28;20458;-79
2024/01/28 07:21:18;;;;;;;20.38;8.70;;;;;;;;;;5057170;28;20133;-78
2024/01/28 07:23:44;;;;;;;21.92;9.00;;;;;;;;;;5057447;28;20056;-80
2024/01/28 07:26:10;;;;;;;21.15;7.70;;;;;;;;;;5056796;28;20061;-78
2024/01/28 07:28:36;;;;;;;16.65;7.30;;;;;;;;;;5056300;28;20044;-77
2024/01/28 07:31:03;;;;;;;16.23;7.18;;;;;;;;;;5037843;28;20052;-79
2024/01/28 07:33:29;;;;;;;18.55;7.22;;;;;;;;;;5057663;28;20041;-80
2024/01/28 07:35:55;;;;;;;17.25;7.40;;;;;;;;;;5038843;28;20458;-79
2024/01/28 07:38:22;;;;;;;19.63;7.18;;;;;;;;;;5039939;28;20456;-80
2024/01/28 07:40:48;;;;;;;17.27;6.82;;;;;;;;;;5038642;28;20377;-79
2024/01/28 07:43:14;;;;;;;19.30;6.97;;;;;;;;;;5055860;28;20065;-80
2024/01/28 07:45:42;;;;;;;19.15;6.68;;;;;;;;;;5054775;28;20072;-80
2024/01/28 07:48:08;;;;;;;16.27;6.43;;;;;;;;;;5036784;28;20124;-79
2024/01/28 07:50:34;;;;;;;14.30;6.57;;;;;;;;;;5036167;28;20048;-80
2024/01/28 07:53:00;;;;;;;14.45;6.35;;;;;;;;;;5038176;28;20053;-80
2024/01/28 07:55:27;;;;;;;15.60;6.57;;;;;;;;;;5039009;28;20095;-78
2024/01/28 07:57:54;;;;;;;22.15;6.93;;;;;;;;;;5041646;28;20041;-79
2024/01/28 08:00:21;;;;;;;20.73;7.05;;;;;;;;;;5038086;28;20061;-79
2024/01/28 08:02:47;;;;;;;16.25;6.95;;;;;;;;;;5036601;28;20071;-79
2024/01/28 08:05:13;;;;;;;15.02;6.72;;;;;;;;;;5055319;28;20048;-79
2024/01/28 08:07:40;;;;;;;15.75;7.03;;;;;;;;;;5058090;28;20048;-80
2024/01/28 08:10:07;;;;;;;17.38;6.32;;;;;;;;;;5040285;28;20124;-79
2024/01/28 08:12:33;;;;;;;17.17;6.63;;;;;;;;;;5040580;28;20045;-79
2024/01/28 08:14:59;;;;;;;17.75;6.63;;;;;;;;;;5040366;28;20055;-79
2024/01/28 08:17:26;;;;;;;21.13;6.78;;;;;;;;;;5043250;28;20103;-78
2024/01/28 08:19:52;;;;;;;20.58;6.05;;;;;;;;;;5047504;28;20045;-79
2024/01/28 08:22:18;;;;;;;16.98;6.18;;;;;;;;;;5047964;28;20071;-79
2024/01/28 08:24:45;;;;;;;18.27;7.10;;;;;;;;;;5059831;28;20057;-79
2024/01/28 08:27:11;;;;;;;18.05;6.60;;;;;;;;;;5058452;28;20489;-78
2024/01/28 08:29:38;;;;;;;18.75;6.30;;;;;;;;;;5059771;28;20048;-78
2024/01/28 08:32:04;;;;;;;;;;;;;;;;;;5059985;28;20056;-78
2024/01/28 08:34:31;;;;;;;17.20;5.70;;;;;;;;;;5060054;28;19947;-74
2024/01/28 08:36:57;;;;;;;14.85;5.55;;;;;;;;;;5058434;28;20604;-75
2024/01/28 08:39:23;;;;;;;15.73;5.75;;;;;;;;;;5024602;28;20144;-75
2024/01/28 08:41:49;;;;;;;17.67;5.55;;;;;;;;;;5057917;28;20060;-79
2024/01/28 08:44:18;;;;;;;14.43;5.47;;;;;;;;;;5040206;28;20041;-76
2024/01/28 08:46:46;;;;;;;14.38;5.60;;;;;;;;;;5024800;28;20045;-76
2024/01/28 08:49:12;;;;;;;16.05;5.60;;;;;;;;;;5057833;28;20057;-78
2024/01/28 08:51:38;;;;;;;21.47;6.10;;;;;;;;;;5024582;28;20100;-78
2024/01/28 08:54:05;;;;;;;16.30;5.65;;;;;;;;;;5057238;28;20284;-80
2024/01/28 08:56:31;;;;;;;13.80;5.20;;;;;;;;;;5039665;28;20053;-79
2024/01/28 08:58:57;;;;;;;14.85;4.95;;;;;;;;;;5039037;28;20103;-77
2024/01/28 09:01:23;;;;;;;16.92;5.50;;;;;;;;;;5056942;28;20045;-79
2024/01/28 09:03:49;;;;;;;18.50;6.28;;;;;;;;;;5040130;28;20446;-78
2024/01/28 09:06:15;;;;;;;20.60;6.15;;;;;;;;;;5039063;28;20092;-80
2024/01/28 09:08:42;;;;;;;16.50;5.15;;;;;;;;;;5039214;28;20397;-79
2024/01/28 09:11:09;;;;;;;18.15;5.90;;;;;;;;;;5039493;28;20049;-79
2024/01/28 09:13:35;;;;;;;20.50;6.35;;;;;;;;;;5058912;28;20064;-78
2024/01/28 09:16:01;;;;;;;14.85;5.55;;;;;;;;;;5056664;28;20085;-78
2024/01/28 09:18:27;;;;;;;16.13;5.60;;;;;;;;;;5039148;28;20041;-79
2024/01/28 09:20:53;;;;;;;11.23;4.80;;;;;;;;;;5038683;28;20052;-79
2024/01/28 09:23:19;;;;;;;16.63;5.70;;;;;;;;;;5039076;28;20041;-77
2024/01/28 09:25:45;;;;;;;17.52;5.55;;;;;;;;;;5038683;28;20053;-80
2024/01/28 09:28:12;;;;;;;13.30;5.07;;;;;;;;;;5023008;28;20049;-79
2024/01/28 09:30:41;;;;;;;15.35;5.53;;;;;;;;;;5057166;28;20105;-76
2024/01/28 09:33:09;;;;;;;13.82;5.15;;;;;;;;;;5024832;28;20480;-80
2024/01/28 09:35:35;;;;;;;14.30;5.22;;;;;;;;;;5039194;28;20128;-79
2024/01/28 09:38:02;;;;;;;16.20;5.40;;;;;;;;;;5039468;28;20049;-79
2024/01/28 09:40:28;;;;;;;10.70;4.50;;;;;;;;;;5022461;28;20306;-77
2024/01/28 09:43:13;;;;;;;13.40;4.95;;;;;;;;;;5039636;28;20087;-78
2024/01/28 09:45:39;;;;;;;13.95;4.85;;;;;;;;;;5062282;28;20049;-80
2024/01/28 09:48:06;;;;;;;14.98;4.97;;;;;;;;;;5060994;28;20067;-79
2024/01/28 09:50:32;;;;;;;11.75;4.93;;;;;;;;;;5025599;28;20048;-81
2024/01/28 09:52:58;;;;;;;13.27;5.03;;;;;;;;;;5060056;28;20052;-80
2024/01/28 09:55:24;;;;;;;14.82;4.90;;;;;;;;;;5060446;28;20045;-80
2024/01/28 09:57:50;;;;;;;12.93;5.20;;;;;;;;;;5062884;28;20060;-80
2024/01/28 10:00:17;;;;;;;12.48;4.30;;;;;;;;;;5049798;28;20052;-80
2024/01/28 10:02:43;;;;;;;12.43;4.25;;;;;;;;;;5065466;28;20053;-79
2024/01/28 10:05:10;;;;;;;14.55;4.72;;;;;;;;;;5045904;28;20075;-81
2024/01/28 10:07:50;;;;;;;12.32;4.38;;;;;;;;;;5043116;28;20052;-79
2024/01/28 10:10:19;;;;;;;11.38;4.35;;;;;;;;;;5059966;28;20503;-79
2024/01/28 10:12:49;;;;;;;11.40;3.60;;;;;;;;;;5058191;28;20049;-79
2024/01/28 10:15:20;;;;;;;11.82;3.55;;;;;;;;;;5027702;28;20049;-81
2024/01/28 10:17:48;;;;;;;11.50;3.95;;;;;;;;;;5062998;28;20443;-80
2024/01/28 10:20:19;;;;;;;10.32;3.78;;;;;;;;;;5061506;28;20433;-81
2024/01/28 10:22:45;;;;;;;11.57;3.78;;;;;;;;;;5042827;28;20051;-79
2024/01/28 10:25:15;;;;;;;13.07;3.22;;;;;;;;;;5062609;28;20045;-82
2024/01/28 10:27:41;;;;;;;9.05;3.17;;;;;;;;;;5047346;28;20076;-81
2024/01/28 10:30:08;;;;;;;11.13;2.85;;;;;;;;;;5044820;28;20045;-79
2024/01/28 10:32:34;;;;;;;12.23;3.73;;;;;;;;;;5029760;28;20555;-79
2024/01/28 10:35:00;;;;;;;14.10;3.13;;;;;;;;;;5049016;28;20441;-78
2024/01/28 10:37:29;;;;;;;7.57;2.58;;;;;;;;;;5063573;28;20128;-81
2024/01/28 10:39:58;;;;;;;8.55;2.45;;;;;;;;;;5046906;28;20436;-78
2024/01/28 10:42:25;;;;;;;12.13;3.30;;;;;;;;;;5029444;28;20464;-80
2024/01/28 10:44:53;;;;;;;9.95;2.63;;;;;;;;;;5070101;28;20045;-80
2024/01/28 10:47:19;;;;;;;8.52;2.67;;;;;;;;;;5072290;28;20136;-77
2024/01/28 10:49:50;;;;;;;10.93;3.28;;;;;;;;;;5028945;28;20040;-79
2024/01/28 10:52:19;;;;;;;10.20;3.00;;;;;;;;;;5045086;28;20041;-81
2024/01/28 10:54:46;;;;;;;7.18;2.40;;;;;;;;;;5047410;28;20104;-78
2024/01/28 10:57:13;;;;;;;9.23;3.30;;;;;;;;;;5047935;28;20041;-82
2024/01/28 10:59:39;;;;;;;10.30;2.92;;;;;;;;;;5063591;28;20049;-81
2024/01/28 11:02:06;;;;;;;8.27;2.55;;;;;;;;;;5048851;28;20052;-81
2024/01/28 11:04:33;;;;;;;13.57;3.80;;;;;;;;;;5046402;28;20072;-81
2024/01/28 11:07:00;;;;;;;8.85;3.17;;;;;;;;;;5064704;28;20095;-81
2024/01/28 11:09:26;;;;;;;10.20;2.85;;;;;;;;;;5066344;28;20104;-81
2024/01/28 11:11:53;;;;;;;13.50;3.03;;;;;;;;;;5065435;28;20045;-80
2024/01/28 11:14:19;;;;;;;10.20;2.78;;;;;;;;;;5046240;28;20056;-80
2024/01/28 11:16:47;;;;;;;10.82;2.70;;;;;;;;;;5046235;28;20118;-81
2024/01/28 11:19:14;;;;;;;5.18;1.90;;;;;;;;;;5045218;28;20055;-80
2024/01/28 11:21:41;;;;;;;8.43;2.78;;;;;;;;;;5060354;28;20045;-79
2024/01/28 11:24:11;;;;;;;10.32;3.22;;;;;;;;;;5043574;28;20049;-80
2024/01/28 11:26:38;;;;;;;9.70;2.53;;;;;;;;;;5062960;28;20048;-80
2024/01/28 11:29:08;;;;;;;7.32;2.33;;;;;;;;;;5049612;28;20053;-80
2024/01/28 11:31:36;;;;;;;6.93;1.95;;;;;;;;;;5048144;28;20041;-80
2024/01/28 11:34:17;;;;;;;8.13;2.47;;;;;;;;;;5067688;28;20100;-79
2024/01/28 11:36:47;;;;;;;7.82;2.20;;;;;;;;;;5063985;28;20049;-81
2024/01/28 11:39:13;;;;;;;8.73;2.35;;;;;;;;;;5047582;28;20040;-81
2024/01/28 11:41:43;;;;;;;8.55;2.67;;;;;;;;;;5047314;28;20064;-81
2024/01/28 11:44:09;;;;;;;8.98;2.17;;;;;;;;;;5064534;28;20053;-79
2024/01/28 11:46:36;;;;;;;7.90;2.40;;;;;;;;;;5045594;28;20140;-82
2024/01/28 11:49:03;;;;;;;6.00;2.10;;;;;;;;;;5067923;28;20794;-82
2024/01/28 11:51:33;;;;;;;7.68;2.10;;;;;;;;;;5066537;28;20053;-82
2024/01/28 11:54:00;;;;;;;7.32;2.03;;;;;;;;;;5066009;28;20048;-81
2024/01/28 11:56:29;;;;;;;8.10;2.28;;;;;;;;;;5047524;28;20091;-82
2024/01/28 11:58:56;;;;;;;10.43;1.88;;;;;;;;;;5062719;28;20041;-80
2024/01/28 12:01:22;;;;;;;;;;;;;;;;;;5030165;28;20052;-80
2024/01/28 12:03:48;;;;;;;18.08;6.03;;;;;;;;;;5044543;28;19921;-80
2024/01/28 12:06:16;;;;;;;10.10;2.83;;;;;;;;;;5042334;28;20076;-79
2024/01/28 12:08:43;;;;;;;13.60;3.10;;;;;;;;;;5043556;28;20045;-79
2024/01/28 12:11:10;;;;;;;5.70;2.03;;;;;;;;;;5059363;28;20055;-79
2024/01/28 12:13:37;;;;;;;8.05;2.63;;;;;;;;;;5064623;28;20056;-82
2024/01/28 12:16:03;;;;;;;7.25;2.60;;;;;;;;;;5061692;28;20132;-81
2024/01/28 12:18:32;;;;;;;4.65;1.83;;;;;;;;;;5060691;28;20131;-81
2024/01/28 12:20:59;;;;;;;9.10;2.10;;;;;;;;;;5039845;28;20071;-80
2024/01/28 12:23:26;;;;;;;6.60;1.90;;;;;;;;;;5059698;28;20056;-77
2024/01/28 12:25:52;;;;;;;6.45;2.35;;;;;;;;;;5042645;28;20057;-81
2024/01/28 12:28:18;;;;;;;5.75;2.50;;;;;;;;;;5063121;28;20041;-81
2024/01/28 12:30:44;;;;;;;6.70;2.25;;;;;;;;;;5044883;28;20485;-80
2024/01/28 12:33:10;;;;;;;9.52;2.20;;;;;;;;;;5040778;28;20529;-79
2024/01/28 12:35:36;;;;;;;8.05;2.40;;;;;;;;;;5058454;28;20049;-82
2024/01/28 12:38:02;;;;;;;7.05;2.10;;;;;;;;;;5042632;28;20098;-75
2024/01/28 12:40:28;;;;;;;8.75;2.08;;;;;;;;;;5036364;28;20056;-79
2024/01/28 12:42:55;;;;;;;5.38;1.60;;;;;;;;;;5004241;28;20053;-80
2024/01/28 12:45:21;;;;;;;4.50;1.60;;;;;;;;;;5022234;28;20504;-80
2024/01/28 12:47:47;;;;;;;5.40;1.60;;;;;;;;;;5021768;28;20057;-80
2024/01/28 12:50:13;;;;;;;8.50;2.00;;;;;;;;;;5027482;28;20053;-80
2024/01/28 12:52:39;;;;;;;5.65;2.10;;;;;;;;;;5032069;28;20066;-81
2024/01/28 12:55:06;;;;;;;4.72;1.40;;;;;;;;;;5030884;28;20089;-77
2024/01/28 12:57:35;;;;;;;5.68;1.77;;;;;;;;;;5050881;28;20053;-81
2024/01/28 13:00:06;;;;;;;8.60;2.10;;;;;;;;;;5050553;28;20049;-81
2024/01/28 13:02:32;;;;;;;6.65;1.88;;;;;;;;;;5051596;28;20041;-78
2024/01/28 13:04:58;;;;;;;6.65;1.75;;;;;;;;;;5051103;28;20049;-80
2024/01/28 13:07:24;;;;;;;7.05;1.50;;;;;;;;;;5034772;28;20030;-82
2024/01/28 13:09:50;;;;;;;5.95;1.25;;;;;;;;;;5036723;28;20049;-82
2024/01/28 13:12:16;;;;;;;6.53;1.45;;;;;;;;;;5050181;28;20041;-80
2024/01/28 13:14:42;;;;;;;5.55;1.90;;;;;;;;;;5032782;28;20046;-82
2024/01/28 13:17:09;;;;;;;5.85;1.50;;;;;;;;;;4997557;28;20049;-79
2024/01/28 13:19:35;;;;;;;5.28;1.50;;;;;;;;;;5039333;28;20048;-79
2024/01/28 13:22:02;;;;;;;3.85;1.13;;;;;;;;;;5038759;28;20048;-81
2024/01/28 13:24:28;;;;;;;7.03;1.33;;;;;;;;;;5006837;28;20096;-80
2024/01/28 13:26:54;;;;;;;7.55;1.70;;;;;;;;;;5042944;28;20048;-80
2024/01/28 13:29:22;;;;;;;6.20;1.20;;;;;;;;;;5027675;28;20049;-80
2024/01/28 13:31:49;;;;;;;7.43;1.70;;;;;;;;;;5044413;28;20041;-80
2024/01/28 13:34:15;;;;;;;7.68;1.17;;;;;;;;;;5043371;28;20127;-79
2024/01/28 13:36:41;;;;;;;7.60;2.55;;;;;;;;;;5011680;28;20061;-82
2024/01/28 13:39:08;;;;;;;6.28;1.80;;;;;;;;;;5043092;28;20052;-79
2024/01/28 13:41:34;;;;;;;4.82;1.52;;;;;;;;;;5037179;28;20489;-81
2024/01/28 13:44:00;;;;;;;6.03;1.40;;;;;;;;;;5046711;28;20108;-81
2024/01/28 13:46:26;;;;;;;5.50;1.20;;;;;;;;;;5063363;28;20477;-77
2024/01/28 13:48:52;;;;;;;5.72;1.63;;;;;;;;;;5044647;28;20036;-81
2024/01/28 13:51:18;;;;;;;8.60;1.60;;;;;;;;;;5042857;28;20369;-81
2024/01/28 13:53:44;;;;;;;5.07;1.40;;;;;;;;;;5043818;28;20114;-80
2024/01/28 13:56:10;;;;;;;4.82;1.38;;;;;;;;;;5060799;28;20088;-80
2024/01/28 13:58:36;;;;;;;3.58;0.98;;;;;;;;;;5061367;28;20088;-80
2024/01/28 14:01:03;;;;;;;4.93;1.15;;;;;;;;;;5060809;28;20044;-78
2024/01/28 14:03:29;;;;;;;5.88;1.38;;;;;;;;;;5057849;28;20056;-77
2024/01/28 14:05:55;;;;;;;3.63;1.02;;;;;;;;;;5057400;28;20049;-79
2024/01/28 14:08:21;;;;;;;4.75;1.50;;;;;;;;;;5042784;28;20084;-79
2024/01/28 14:10:48;;;;;;;6.15;1.23;;;;;;;;;;5059997;28;20068;-80
2024/01/28 14:13:14;;;;;;;4.73;1.30;;;;;;;;;;5059748;28;20048;-79
2024/01/28 14:15:43;;;;;;;4.82;1.10;;;;;;;;;;5058625;28;20045;-75
2024/01/28 14:18:09;;;;;;;6.03;1.20;;;;;;;;;;5042077;28;20053;-79
2024/01/28 14:20:35;;;;;;;5.07;1.30;;;;;;;;;;5044965;28;20048;-80
2024/01/28 14:23:01;;;;;;;4.35;1.20;;;;;;;;;;5046883;28;20095;-77
2024/01/28 14:25:27;;;;;;;5.97;1.42;;;;;;;;;;5067429;28;20041;-80
2024/01/28 14:27:53;;;;;;;4.40;1.25;;;;;;;;;;5047787;28;20049;-80
2024/01/28 14:30:19;;;;;;;7.57;1.42;;;;;;;;;;5046440;28;20485;-78